Time;durP1;ratioP1;P1;durP2;ratioP2;P2;SDS_P1;SDS_P2;PMS_P1;PMS_P2;Temp;Humidity;BMP_temperature;BMP_pressure;BME280_temperature;BME280_humidity;BME280_pressure;Samples;Min_cycle;Max_cycle;Signal;HPM_P1;HPM_P2
2022/04/07 00:02:25;;;;;;;1.30;1.07;;;;;;;9.47;100.00;96783.63;5074389;28;20222;-64
2022/04/07 00:04:51;;;;;;;1.50;1.23;;;;;;;9.53;100.00;96774.34;5074980;28;20214;-64
2022/04/07 00:07:18;;;;;;;1.43;1.20;;;;;;;9.60;100.00;96775.50;5075334;28;20230;-65
2022/04/07 00:09:44;;;;;;;1.47;1.37;;;;;;;9.51;100.00;96773.63;5075044;28;20218;-64
2022/04/07 00:12:11;;;;;;;1.50;1.40;;;;;;;9.53;100.00;96771.69;5073610;28;20217;-65
2022/04/07 00:14:38;;;;;;;1.40;1.30;;;;;;;9.52;100.00;96770.03;5075395;28;20590;-64
2022/04/07 00:17:04;;;;;;;1.20;1.10;;;;;;;9.54;100.00;96776.03;5075228;28;20216;-64
2022/04/07 00:19:32;;;;;;;1.30;1.20;;;;;;;9.60;100.00;96759.66;5074942;28;20223;-64
2022/04/07 00:21:59;;;;;;;1.33;1.23;;;;;;;9.62;100.00;96768.28;5074935;28;20212;-66
2022/04/07 00:24:26;;;;;;;1.30;1.20;;;;;;;9.57;100.00;96762.56;5075101;28;20211;-65
2022/04/07 00:26:52;;;;;;;1.30;1.20;;;;;;;9.47;100.00;96748.50;5074758;28;20582;-64
2022/04/07 00:29:19;;;;;;;1.43;1.30;;;;;;;9.36;100.00;96736.25;5074981;28;20235;-64
2022/04/07 00:31:46;;;;;;;2.37;1.73;;;;;;;9.21;100.00;96726.19;5074643;28;20215;-66
2022/04/07 00:34:12;;;;;;;1.70;1.60;;;;;;;8.98;100.00;96735.22;5074875;28;20219;-64
2022/04/07 00:36:40;;;;;;;1.53;1.43;;;;;;;8.85;100.00;96729.31;5074890;28;20577;-64
2022/04/07 00:39:07;;;;;;;1.50;1.40;;;;;;;8.87;100.00;96727.41;5070788;28;20274;-64
2022/04/07 00:41:37;;;;;;;1.50;1.40;;;;;;;8.89;100.00;96726.31;5070401;28;20246;-64
2022/04/07 00:44:05;;;;;;;1.60;1.50;;;;;;;8.98;100.00;96729.94;5072119;28;20272;-65
2022/04/07 00:46:32;;;;;;;1.93;1.63;;;;;;;9.03;100.00;96722.47;5074505;28;20221;-65
2022/04/07 00:48:58;;;;;;;1.30;1.20;;;;;;;9.20;100.00;96729.78;5074471;28;20218;-64
2022/04/07 00:51:24;;;;;;;1.50;1.40;;;;;;;9.31;100.00;96714.72;5074238;28;20214;-64
2022/04/07 00:53:52;;;;;;;1.50;1.37;;;;;;;9.41;100.00;96712.94;5074207;28;20219;-65
2022/04/07 00:56:19;;;;;;;1.70;1.20;;;;;;;9.44;100.00;96711.84;5074011;28;20215;-64
2022/04/07 00:58:47;;;;;;;1.20;1.10;;;;;;;9.57;100.00;96709.81;5069743;28;20223;-64
2022/04/07 01:01:14;;;;;;;1.40;1.30;;;;;;;9.50;100.00;96700.78;5061874;28;20254;-64
2022/04/07 01:03:41;;;;;;;1.83;1.20;;;;;;;9.51;100.00;96702.44;5062948;28;20283;-64
2022/04/07 01:06:08;;;;;;;1.40;1.20;;;;;;;9.55;100.00;96701.22;5063989;28;20221;-64
2022/04/07 01:08:34;;;;;;;1.13;1.00;;;;;;;9.65;100.00;96695.00;5070382;28;20215;-64
2022/04/07 01:11:02;;;;;;;0.90;0.90;;;;;;;9.61;100.00;96698.03;5061985;28;20220;-64
2022/04/07 01:13:43;;;;;;;1.07;0.90;;;;;;;9.53;100.00;96703.13;5073628;28;20217;-65
2022/04/07 01:16:10;;;;;;;0.80;0.80;;;;;;;9.61;100.00;96696.22;5073888;28;20227;-64
2022/04/07 01:18:36;;;;;;;1.03;1.00;;;;;;;9.62;100.00;96692.59;5074179;28;20239;-65
2022/04/07 01:21:03;;;;;;;1.10;0.80;;;;;;;9.59;100.00;96684.97;5073838;28;20242;-64
2022/04/07 01:23:35;;;;;;;0.77;0.77;;;;;;;9.61;100.00;96682.22;5073923;28;20214;-65
2022/04/07 01:26:03;;;;;;;0.70;0.70;;;;;;;9.65;100.00;96691.50;5073953;28;20220;-65
2022/04/07 01:28:30;;;;;;;0.67;0.67;;;;;;;9.71;100.00;96678.63;5073781;28;20217;-64
2022/04/07 01:30:56;;;;;;;1.43;1.00;;;;;;;9.75;100.00;96679.19;5072001;28;20215;-64
2022/04/07 01:33:23;;;;;;;1.00;0.80;;;;;;;9.78;100.00;96669.19;5073525;28;20222;-64
2022/04/07 01:35:49;;;;;;;1.07;0.97;;;;;;;9.77;100.00;96672.78;5073668;28;20224;-64
2022/04/07 01:38:18;;;;;;;0.90;0.90;;;;;;;9.70;100.00;96665.56;5073610;28;20219;-64
2022/04/07 01:40:46;;;;;;;1.33;1.10;;;;;;;9.58;100.00;96662.22;5073429;28;20312;-64
2022/04/07 01:43:16;;;;;;;1.27;1.00;;;;;;;9.54;100.00;96660.00;5073403;28;20207;-65
2022/04/07 01:45:43;;;;;;;1.00;0.90;;;;;;;9.37;100.00;96665.91;5073431;28;20211;-65
2022/04/07 01:48:10;;;;;;;2.50;1.27;;;;;;;9.11;100.00;96672.63;5073383;28;20582;-65
2022/04/07 01:50:38;;;;;;;1.10;1.00;;;;;;;8.89;100.00;96668.34;5073321;28;20213;-65
2022/04/07 01:53:05;;;;;;;1.00;0.97;;;;;;;8.75;100.00;96673.94;5073206;28;20219;-65
2022/04/07 01:55:32;;;;;;;0.93;0.87;;;;;;;8.71;100.00;96674.34;5068248;28;20218;-65
2022/04/07 01:57:59;;;;;;;0.90;0.90;;;;;;;8.58;100.00;96671.06;5071516;28;20222;-65
2022/04/07 02:00:27;;;;;;;0.70;0.70;;;;;;;8.50;100.00;96671.72;5072932;28;20258;-64
2022/04/07 02:02:53;;;;;;;1.63;1.00;;;;;;;8.54;100.00;96667.00;5073208;28;20248;-64
2022/04/07 02:05:20;;;;;;;1.23;0.90;;;;;;;8.74;100.00;96663.53;5073124;28;20233;-64
2022/04/07 02:07:46;;;;;;;1.00;0.80;;;;;;;8.87;100.00;96645.75;5072867;28;20717;-64
2022/04/07 02:10:14;;;;;;;0.70;0.70;;;;;;;8.95;100.00;96651.16;5073316;28;20611;-64
2022/04/07 02:12:42;;;;;;;1.20;0.70;;;;;;;9.04;100.00;96651.22;5073147;28;20218;-65
2022/04/07 02:15:11;;;;;;;0.70;0.70;;;;;;;9.12;100.00;96648.75;5072907;28;20220;-65
2022/04/07 02:17:39;;;;;;;0.83;0.80;;;;;;;9.17;100.00;96646.53;5072871;28;20215;-64
2022/04/07 02:20:08;;;;;;;1.07;0.80;;;;;;;9.28;100.00;96653.50;5073082;28;20217;-64
2022/04/07 02:22:34;;;;;;;1.27;0.70;;;;;;;9.39;100.00;96651.63;5071065;28;20212;-65
2022/04/07 02:25:01;;;;;;;1.10;0.90;;;;;;;9.49;100.00;96662.19;5072975;28;20210;-65
2022/04/07 02:27:35;;;;;;;0.80;0.80;;;;;;;9.55;100.00;96645.81;5072402;28;20221;-64
2022/04/07 02:30:01;;;;;;;0.93;0.80;;;;;;;9.54;100.00;96646.81;5073038;28;20218;-64
2022/04/07 02:32:28;;;;;;;1.90;0.63;;;;;;;9.54;100.00;96638.88;5072738;28;20219;-64
2022/04/07 02:34:56;;;;;;;1.80;0.70;;;;;;;9.63;100.00;96630.16;5072973;28;20224;-65
2022/04/07 02:37:25;;;;;;;0.60;0.60;;;;;;;9.67;100.00;96640.28;5072906;28;20617;-64
2022/04/07 02:39:51;;;;;;;0.77;0.63;;;;;;;9.68;100.00;96635.84;5072825;28;20293;-64
2022/04/07 02:42:18;;;;;;;0.63;0.63;;;;;;;9.71;100.00;96635.56;5072752;28;20238;-64
2022/04/07 02:44:44;;;;;;;0.70;0.60;;;;;;;9.69;100.00;96629.59;5072552;28;20233;-64
2022/04/07 02:47:10;;;;;;;0.70;0.70;;;;;;;9.71;100.00;96640.84;5072517;28;20597;-64
2022/04/07 02:49:39;;;;;;;0.70;0.60;;;;;;;9.62;100.00;96641.66;5070907;28;20215;-65
2022/04/07 02:52:08;;;;;;;0.60;0.60;;;;;;;9.54;100.00;96637.06;5072678;28;20221;-65
2022/04/07 02:54:34;;;;;;;0.87;0.60;;;;;;;9.50;100.00;96626.94;5072682;28;20224;-66
2022/04/07 02:57:01;;;;;;;0.70;0.60;;;;;;;9.40;100.00;96624.28;5072459;28;20225;-66
2022/04/07 02:59:27;;;;;;;1.77;0.80;;;;;;;9.30;100.00;96619.97;5072698;28;20214;-64
2022/04/07 03:01:56;;;;;;;1.17;0.77;;;;;;;9.31;100.00;96624.25;5072131;28;20669;-66
2022/04/07 03:04:24;;;;;;;2.07;0.83;;;;;;;9.22;100.00;96615.34;5072538;28;20268;-65
2022/04/07 03:06:50;;;;;;;1.23;0.90;;;;;;;9.19;100.00;96614.78;5072503;28;20215;-64
2022/04/07 03:09:18;;;;;;;0.60;0.60;;;;;;;9.13;100.00;96608.22;5069533;28;20211;-64
2022/04/07 03:11:46;;;;;;;1.03;0.60;;;;;;;9.12;100.00;96608.38;5072528;28;20217;-66
2022/04/07 03:14:12;;;;;;;0.90;0.90;;;;;;;9.09;100.00;96606.00;5071245;28;20651;-65
2022/04/07 03:16:39;;;;;;;0.93;0.93;;;;;;;9.01;100.00;96611.13;5072202;28;20214;-67
2022/04/07 03:19:05;;;;;;;0.80;0.80;;;;;;;9.00;100.00;96612.09;5072589;28;20225;-65
2022/04/07 03:21:32;;;;;;;1.90;0.90;;;;;;;9.01;100.00;96603.22;5072373;28;20241;-66
2022/04/07 03:23:58;;;;;;;1.70;0.93;;;;;;;8.99;100.00;96603.34;5072084;28;20213;-64
2022/04/07 03:26:26;;;;;;;0.73;0.73;;;;;;;8.98;100.00;96608.72;5072225;28;20590;-64
2022/04/07 03:28:53;;;;;;;1.93;0.90;;;;;;;9.06;100.00;96593.13;5072544;28;20218;-64
2022/04/07 03:31:19;;;;;;;1.87;0.87;;;;;;;9.05;100.00;96600.16;5072181;28;20219;-64
2022/04/07 03:33:46;;;;;;;1.27;1.17;;;;;;;8.98;100.00;96598.19;5072118;28;20674;-64
2022/04/07 03:36:12;;;;;;;1.67;0.90;;;;;;;9.03;100.00;96588.94;5072421;28;20603;-64
2022/04/07 03:38:39;;;;;;;1.00;0.73;;;;;;;9.07;100.00;96576.31;5073991;28;20239;-64
2022/04/07 03:41:06;;;;;;;0.87;0.87;;;;;;;9.11;100.00;96577.75;5074007;28;20242;-63
2022/04/07 03:43:34;;;;;;;0.70;0.70;;;;;;;9.15;100.00;96576.47;5075780;28;20214;-64
2022/04/07 03:46:00;;;;;;;0.80;0.80;;;;;;;9.19;100.00;96569.97;5075420;28;20293;-64
2022/04/07 03:48:27;;;;;;;1.33;0.90;;;;;;;9.22;100.00;96574.97;5075454;28;20681;-66
2022/04/07 03:50:56;;;;;;;1.70;1.10;;;;;;;9.23;100.00;96571.38;5075720;28;20245;-66
2022/04/07 03:53:22;;;;;;;1.70;0.70;;;;;;;9.24;100.00;96567.78;5075386;28;20238;-65
2022/04/07 03:55:49;;;;;;;0.70;0.70;;;;;;;9.24;100.00;96567.78;5075322;28;20672;-66
2022/04/07 03:58:15;;;;;;;0.70;0.70;;;;;;;9.35;100.00;96567.63;5075214;28;20676;-64
2022/04/07 04:00:43;;;;;;;0.67;0.67;;;;;;;9.41;100.00;96559.19;5075065;28;20242;-64
2022/04/07 04:03:09;;;;;;;0.87;0.70;;;;;;;9.45;100.00;96560.59;5075360;28;20212;-65
2022/04/07 04:05:36;;;;;;;0.80;0.80;;;;;;;9.49;100.00;96559.34;5075350;28;20217;-64
2022/04/07 04:08:02;;;;;;;1.00;0.90;;;;;;;9.45;100.00;96552.66;5073752;28;20207;-67
2022/04/07 04:10:29;;;;;;;2.17;0.90;;;;;;;9.41;100.00;96543.34;5074926;28;20797;-66
2022/04/07 04:12:55;;;;;;;0.97;0.70;;;;;;;9.26;100.00;96540.31;5075156;28;20215;-64
2022/04/07 04:15:22;;;;;;;0.80;0.80;;;;;;;9.15;100.00;96526.41;5075262;28;20236;-65
2022/04/07 04:17:50;;;;;;;0.83;0.80;;;;;;;9.05;100.00;96538.75;5075155;28;20214;-64
2022/04/07 04:20:16;;;;;;;1.20;1.10;;;;;;;8.94;100.00;96528.31;5074844;28;20218;-64
2022/04/07 04:22:43;;;;;;;0.80;0.80;;;;;;;8.85;100.00;96515.94;5074995;28;20232;-64
2022/04/07 04:25:10;;;;;;;1.33;0.70;;;;;;;8.83;100.00;96525.78;5066953;28;20211;-64
2022/04/07 04:27:36;;;;;;;1.80;0.90;;;;;;;8.73;100.00;96515.22;5075357;28;20213;-64
2022/04/07 04:30:04;;;;;;;1.27;0.90;;;;;;;8.79;100.00;96514.69;5074997;28;20589;-65
2022/04/07 04:32:30;;;;;;;1.70;0.80;;;;;;;8.87;100.00;96516.66;5068899;28;20304;-66
2022/04/07 04:34:58;;;;;;;0.80;0.80;;;;;;;9.02;100.00;96518.78;5074912;28;20216;-64
2022/04/07 04:37:26;;;;;;;1.73;0.87;;;;;;;9.16;100.00;96522.78;5074759;28;20214;-65
2022/04/07 04:39:52;;;;;;;0.93;0.80;;;;;;;9.21;100.00;96526.72;5074437;28;20218;-65
2022/04/07 04:42:19;;;;;;;1.37;1.00;;;;;;;9.27;100.00;96512.13;5070237;28;20601;-64
2022/04/07 04:44:46;;;;;;;1.37;0.90;;;;;;;9.24;100.00;96515.06;5074318;28;20691;-64
2022/04/07 04:47:13;;;;;;;1.33;0.90;;;;;;;9.30;100.00;96514.50;5074459;28;20266;-64
2022/04/07 04:49:41;;;;;;;0.83;0.83;;;;;;;9.36;100.00;96517.41;5073779;28;20210;-64
2022/04/07 04:52:09;;;;;;;1.43;1.00;;;;;;;9.42;100.00;96521.31;5074379;28;20216;-64
2022/04/07 04:54:35;;;;;;;2.50;0.80;;;;;;;9.46;100.00;96513.00;5074144;28;20680;-64
2022/04/07 04:57:02;;;;;;;1.50;0.90;;;;;;;9.45;100.00;96507.84;5074191;28;20221;-65
2022/04/07 04:59:29;;;;;;;0.70;0.70;;;;;;;9.45;100.00;96494.66;5072751;28;20222;-66
2022/04/07 05:01:55;;;;;;;1.40;0.90;;;;;;;9.40;100.00;96479.28;5074290;28;20258;-66
2022/04/07 05:04:22;;;;;;;0.80;0.80;;;;;;;9.49;100.00;96493.44;5074214;28;20221;-65
2022/04/07 05:06:48;;;;;;;1.00;0.90;;;;;;;9.47;100.00;96490.91;5074234;28;20224;-66
2022/04/07 05:09:16;;;;;;;0.90;0.83;;;;;;;9.48;100.00;96481.22;5074298;28;20232;-65
2022/04/07 05:11:43;;;;;;;0.70;0.70;;;;;;;9.38;100.00;96481.22;5074051;28;20217;-66
2022/04/07 05:14:09;;;;;;;0.83;0.70;;;;;;;9.36;100.00;96482.31;5074020;28;20228;-64
2022/04/07 05:16:36;;;;;;;1.40;0.70;;;;;;;9.37;100.00;96490.06;5073980;28;20227;-64
2022/04/07 05:19:02;;;;;;;1.17;0.70;;;;;;;9.37;100.00;96491.91;5073933;28;20226;-65
2022/04/07 05:21:29;;;;;;;1.43;0.60;;;;;;;9.33;100.00;96485.22;5073403;28;20739;-65
2022/04/07 05:23:55;;;;;;;0.70;0.70;;;;;;;9.37;100.00;96486.63;5073445;28;20674;-65
2022/04/07 05:26:23;;;;;;;1.37;1.10;;;;;;;9.30;100.00;96488.16;5072246;28;20218;-64
2022/04/07 05:28:49;;;;;;;0.70;0.70;;;;;;;9.33;100.00;96491.34;5073815;28;20216;-64
2022/04/07 05:31:16;;;;;;;1.70;0.83;;;;;;;9.49;100.00;96482.88;5073765;28;20223;-64
2022/04/07 05:33:42;;;;;;;0.97;0.90;;;;;;;9.54;100.00;96476.19;5073738;28;20220;-64
2022/04/07 05:36:09;;;;;;;0.90;0.70;;;;;;;9.60;100.00;96480.91;5073454;28;20697;-64
2022/04/07 05:38:35;;;;;;;1.67;0.80;;;;;;;9.61;100.00;96477.31;5073509;28;20222;-63
2022/04/07 05:41:01;;;;;;;1.80;1.00;;;;;;;9.68;100.00;96482.88;5073390;28;20217;-64
2022/04/07 05:43:29;;;;;;;0.87;0.70;;;;;;;9.69;100.00;96479.25;5073343;28;20214;-64
2022/04/07 05:45:56;;;;;;;0.90;0.90;;;;;;;9.71;100.00;96464.09;5073544;28;20231;-64
2022/04/07 05:48:22;;;;;;;0.57;0.57;;;;;;;9.74;100.00;96456.75;5073338;28;20214;-66
2022/04/07 05:50:49;;;;;;;1.03;0.70;;;;;;;9.71;100.00;96472.00;5071639;28;20213;-64
2022/04/07 05:53:15;;;;;;;0.60;0.60;;;;;;;9.77;100.00;96466.19;5073433;28;20587;-64
2022/04/07 05:55:41;;;;;;;0.60;0.60;;;;;;;9.82;100.00;96454.25;5073007;28;20222;-64
2022/04/07 05:58:09;;;;;;;0.50;0.50;;;;;;;9.82;100.00;96451.59;5073226;28;20235;-64
2022/04/07 06:00:37;;;;;;;1.20;0.70;;;;;;;9.77;100.00;96450.34;5072219;28;20245;-64
2022/04/07 06:03:04;;;;;;;0.77;0.50;;;;;;;9.90;100.00;96435.06;5073097;28;20245;-64
2022/04/07 06:05:30;;;;;;;0.70;0.60;;;;;;;10.03;99.81;96433.78;5073217;28;20215;-65
2022/04/07 06:08:00;;;;;;;0.70;0.70;;;;;;;10.26;99.45;96421.06;5072869;28;20218;-64
2022/04/07 06:10:27;;;;;;;0.57;0.57;;;;;;;10.47;97.84;96408.47;5072802;28;20233;-65
2022/04/07 06:12:53;;;;;;;0.60;0.60;;;;;;;10.71;94.09;96391.06;5073100;28;20594;-65
2022/04/07 06:15:21;;;;;;;0.40;0.40;;;;;;;10.83;91.12;96373.22;5073177;28;20237;-65
2022/04/07 06:17:50;;;;;;;1.03;0.40;;;;;;;10.83;91.79;96357.34;5071111;28;20243;-65
2022/04/07 06:20:17;;;;;;;0.53;0.50;;;;;;;10.88;90.42;96386.81;5072992;28;20219;-65
2022/04/07 06:22:44;;;;;;;0.80;0.40;;;;;;;10.99;90.18;96384.78;5072826;28;20271;-64
2022/04/07 06:25:11;;;;;;;0.63;0.60;;;;;;;11.07;87.70;96391.94;5073144;28;20222;-64
2022/04/07 06:27:40;;;;;;;0.40;0.40;;;;;;;11.09;87.55;96384.69;5073092;28;20218;-63
2022/04/07 06:30:09;;;;;;;1.33;0.50;;;;;;;10.90;87.60;96390.13;5072626;28;20215;-65
2022/04/07 06:32:36;;;;;;;0.97;0.50;;;;;;;10.89;88.23;96393.75;5072629;28;20212;-63
2022/04/07 06:35:06;;;;;;;0.70;0.40;;;;;;;10.86;90.12;96396.69;5073071;28;20293;-64
2022/04/07 06:37:32;;;;;;;0.40;0.40;;;;;;;10.88;88.01;96384.97;5072924;28;20218;-63
2022/04/07 06:40:01;;;;;;;0.60;0.43;;;;;;;10.96;88.48;96384.25;5070136;28;20216;-64
2022/04/07 06:42:27;;;;;;;0.40;0.40;;;;;;;10.92;87.34;96382.88;5071013;28;20289;-64
2022/04/07 06:44:55;;;;;;;0.60;0.60;;;;;;;11.00;87.61;96375.03;5072860;28;20221;-64
2022/04/07 06:47:21;;;;;;;0.40;0.40;;;;;;;11.12;86.50;96382.56;5072617;28;20596;-64
2022/04/07 06:49:49;;;;;;;0.97;0.50;;;;;;;11.14;86.68;96367.38;5072715;28;20596;-64
2022/04/07 06:52:17;;;;;;;2.33;0.70;;;;;;;11.09;86.97;96374.13;5072759;28;20595;-64
2022/04/07 06:54:43;;;;;;;0.50;0.50;;;;;;;11.09;87.50;96366.19;5072541;28;20663;-64
2022/04/07 06:57:10;;;;;;;0.50;0.50;;;;;;;11.16;88.08;96360.16;5072668;28;20220;-64
2022/04/07 06:59:37;;;;;;;0.40;0.40;;;;;;;11.16;85.94;96343.44;5072583;28;20292;-64
2022/04/07 07:02:04;;;;;;;0.50;0.50;;;;;;;11.09;87.42;96358.25;5072808;28;20327;-64
2022/04/07 07:04:32;;;;;;;0.50;0.50;;;;;;;11.14;87.73;96358.63;5072679;28;20582;-64
2022/04/07 07:06:58;;;;;;;0.50;0.40;;;;;;;11.17;87.10;96359.16;5072684;28;20263;-64
2022/04/07 07:09:26;;;;;;;0.53;0.40;;;;;;;11.21;86.62;96357.03;5070723;28;20604;-64
2022/04/07 07:11:53;;;;;;;0.80;0.50;;;;;;;11.42;85.79;96331.06;5073153;28;20217;-64
2022/04/07 07:14:19;;;;;;;0.53;0.53;;;;;;;11.45;85.29;96325.50;5076275;28;20226;-64
2022/04/07 07:16:47;;;;;;;0.67;0.53;;;;;;;11.53;85.45;96334.31;5076305;28;20220;-64
2022/04/07 07:19:15;;;;;;;0.70;0.50;;;;;;;11.64;83.05;96331.44;5075228;28;20217;-66
2022/04/07 07:21:41;;;;;;;0.63;0.50;;;;;;;11.74;83.37;96326.03;5073099;28;20222;-64
2022/04/07 07:24:08;;;;;;;1.63;0.50;;;;;;;11.76;83.57;96318.78;5065870;28;20220;-64
2022/04/07 07:26:36;;;;;;;0.50;0.50;;;;;;;11.75;84.55;96309.19;5076128;28;20222;-65
2022/04/07 07:29:03;;;;;;;0.47;0.43;;;;;;;11.70;83.40;96320.25;5076006;28;20226;-65
2022/04/07 07:31:30;;;;;;;0.60;0.57;;;;;;;11.78;83.04;96301.75;5066004;28;20214;-64
2022/04/07 07:33:57;;;;;;;0.40;0.40;;;;;;;11.99;83.13;96306.66;5071155;28;20303;-65
2022/04/07 07:36:23;;;;;;;0.40;0.40;;;;;;;12.09;82.26;96305.53;5061888;28;20219;-65
2022/04/07 07:38:50;;;;;;;0.40;0.40;;;;;;;12.05;81.15;96287.50;5065852;28;20221;-65
2022/04/07 07:41:16;;;;;;;0.43;0.43;;;;;;;12.03;81.25;96292.09;5067795;28;20213;-65
2022/04/07 07:43:44;;;;;;;1.67;0.70;;;;;;;12.02;81.51;96296.56;5065604;28;20235;-65
2022/04/07 07:46:10;;;;;;;0.53;0.50;;;;;;;12.07;81.36;96290.78;5063731;28;20694;-62
2022/04/07 07:48:37;;;;;;;0.40;0.40;;;;;;;12.16;81.44;96287.22;5066104;28;20235;-61
2022/04/07 07:51:04;;;;;;;0.73;0.40;;;;;;;12.25;80.42;96283.56;5075701;28;20352;-61
2022/04/07 07:53:30;;;;;;;0.30;0.30;;;;;;;12.23;80.06;96277.63;5072252;28;20266;-62
2022/04/07 07:55:57;;;;;;;0.40;0.40;;;;;;;12.28;81.13;96280.63;5074382;28;20207;-61
2022/04/07 07:58:25;;;;;;;0.63;0.50;;;;;;;12.24;79.63;96268.69;5074625;28;20230;-61
2022/04/07 08:00:52;;;;;;;1.37;0.50;;;;;;;12.14;80.12;96263.53;5072055;28;20241;-63
2022/04/07 08:03:19;;;;;;;0.80;0.60;;;;;;;12.07;81.96;96254.56;5063446;28;20242;-62
2022/04/07 08:05:45;;;;;;;0.40;0.40;;;;;;;12.12;81.03;96264.69;5062555;28;20626;-62
2022/04/07 08:08:12;;;;;;;0.80;0.50;;;;;;;12.04;80.14;96262.81;5075386;28;20574;-64
2022/04/07 08:10:39;;;;;;;0.70;0.50;;;;;;;12.01;81.78;96257.00;5075219;28;20219;-64
2022/04/07 08:13:05;;;;;;;0.93;0.60;;;;;;;11.99;82.36;96243.94;5075020;28;20211;-65
2022/04/07 08:15:33;;;;;;;0.63;0.60;;;;;;;12.13;82.06;96239.84;5075185;28;20586;-63
2022/04/07 08:18:01;;;;;;;1.20;0.60;;;;;;;12.15;81.24;96248.44;5074879;28;20229;-62
2022/04/07 08:20:27;;;;;;;0.60;0.60;;;;;;;12.29;81.49;96224.00;5071757;28;20222;-62
2022/04/07 08:22:54;;;;;;;0.97;0.60;;;;;;;12.33;79.85;96235.91;5073624;28;20237;-63
2022/04/07 08:25:21;;;;;;;0.57;0.50;;;;;;;12.46;79.96;96217.75;5070253;28;20224;-63
2022/04/07 08:27:47;;;;;;;0.90;0.53;;;;;;;12.50;79.57;96216.41;5072541;28;20297;-62
2022/04/07 08:30:14;;;;;;;0.87;0.57;;;;;;;12.65;78.75;96212.13;5068136;28;20574;-62
2022/04/07 08:32:40;;;;;;;0.77;0.50;;;;;;;12.80;77.65;96202.53;5070553;28;20784;-63
2022/04/07 08:35:10;;;;;;;0.87;0.50;;;;;;;12.91;77.29;96212.78;5060391;28;20224;-62
2022/04/07 08:37:37;;;;;;;0.77;0.43;;;;;;;12.94;76.81;96207.97;5062577;28;20291;-63
2022/04/07 08:40:06;;;;;;;0.93;0.50;;;;;;;12.96;76.48;96202.56;5068622;28;20308;-65
2022/04/07 08:42:34;;;;;;;0.97;0.47;;;;;;;12.68;80.43;96193.25;5069643;28;20262;-61
2022/04/07 08:45:00;;;;;;;0.50;0.50;;;;;;;12.48;82.30;96207.81;5068966;28;20219;-63
2022/04/07 08:47:27;;;;;;;1.33;0.40;;;;;;;12.38;81.65;96209.78;5064375;28;20677;-64
2022/04/07 08:49:53;;;;;;;0.67;0.50;;;;;;;12.48;81.13;96202.50;5071949;28;20677;-67
2022/04/07 08:52:22;;;;;;;0.93;0.40;;;;;;;12.51;80.68;96207.47;5071399;28;20697;-66
2022/04/07 08:54:49;;;;;;;3.53;0.60;;;;;;;12.67;80.69;96186.28;5070912;28;20218;-65
2022/04/07 08:57:16;;;;;;;2.63;0.60;;;;;;;12.72;78.54;96157.47;5071427;28;20219;-64
2022/04/07 08:59:42;;;;;;;1.83;0.50;;;;;;;12.65;78.19;96153.84;5071789;28;20687;-67
2022/04/07 09:02:10;;;;;;;0.40;0.40;;;;;;;12.54;78.86;96170.88;5070346;28;20243;-66
2022/04/07 09:04:38;;;;;;;2.07;0.53;;;;;;;12.56;78.84;96168.06;5073416;28;20584;-68
2022/04/07 09:07:05;;;;;;;0.80;0.50;;;;;;;12.54;79.08;96181.47;5071861;28;20279;-66
2022/04/07 09:09:36;;;;;;;2.20;0.60;;;;;;;12.49;78.46;96173.22;5071990;28;20221;-67
2022/04/07 09:12:03;;;;;;;0.40;0.40;;;;;;;12.58;79.05;96164.25;5070386;28;20304;-65
2022/04/07 09:14:32;;;;;;;0.70;0.50;;;;;;;12.74;79.30;96168.72;5057491;28;20793;-66
2022/04/07 09:16:59;;;;;;;1.33;0.60;;;;;;;12.84;77.02;96162.25;5062530;28;20215;-66
2022/04/07 09:19:26;;;;;;;1.50;0.50;;;;;;;12.81;76.65;96148.50;5062409;28;20227;-72
2022/04/07 09:22:06;;;;;;;0.37;0.30;;;;;;;12.90;74.77;96150.16;5048452;28;20791;-69
2022/04/07 09:24:36;;;;;;;0.60;0.40;;;;;;;12.82;75.36;96152.81;5057884;28;20305;-67
2022/04/07 09:27:04;;;;;;;0.30;0.30;;;;;;;12.71;76.42;96142.56;5057088;28;20628;-65
2022/04/07 09:29:38;;;;;;;0.40;0.40;;;;;;;12.55;77.05;96147.88;5058691;28;20212;-67
2022/04/07 09:32:16;;;;;;;0.57;0.40;;;;;;;12.53;78.13;96141.91;5062274;28;20207;-65
2022/04/07 09:34:43;;;;;;;1.43;0.40;;;;;;;12.45;78.48;96140.09;5057775;28;20694;-64
2022/04/07 09:37:10;;;;;;;0.43;0.40;;;;;;;12.40;79.89;96144.22;5056847;28;20594;-65
2022/04/07 09:39:39;;;;;;;0.33;0.30;;;;;;;12.42;81.64;96145.69;5061784;28;20257;-64
2022/04/07 09:42:20;;;;;;;1.53;0.50;;;;;;;12.46;83.83;96140.94;5061038;28;20275;-64
2022/04/07 09:44:52;;;;;;;1.27;0.50;;;;;;;12.38;84.23;96138.25;5055931;28;20269;-66
2022/04/07 09:47:19;;;;;;;0.83;0.40;;;;;;;12.30;81.43;96125.81;5058927;28;20632;-64
2022/04/07 09:49:46;;;;;;;0.50;0.50;;;;;;;12.34;84.34;96136.94;5062820;28;20286;-67
2022/04/07 09:52:13;;;;;;;2.47;0.50;;;;;;;12.40;82.71;96131.81;5059443;28;20218;-67
2022/04/07 09:54:44;;;;;;;0.73;0.50;;;;;;;12.58;81.78;96113.91;5059289;28;20218;-67
2022/04/07 09:57:11;;;;;;;0.40;0.23;;;;;;;12.93;81.16;96092.31;5061254;28;20224;-67
2022/04/07 09:59:40;;;;;;;0.50;0.50;;;;;;;13.12;81.70;96101.75;5062662;28;20229;-64
2022/04/07 10:02:07;;;;;;;0.40;0.40;;;;;;;12.96;78.96;96093.84;5059170;28;20247;-67
2022/04/07 10:04:35;;;;;;;0.90;0.43;;;;;;;13.19;78.95;96086.78;5059069;28;20330;-66
2022/04/07 10:07:04;;;;;;;0.50;0.50;;;;;;;13.34;78.48;96087.75;5061837;28;20215;-66
2022/04/07 10:09:30;;;;;;;0.60;0.60;;;;;;;13.34;77.83;96051.44;5063313;28;20211;-66
2022/04/07 10:11:59;;;;;;;0.63;0.37;;;;;;;13.27;77.58;96053.09;5059723;28;20220;-66
2022/04/07 10:14:28;;;;;;;1.17;0.37;;;;;;;13.23;77.34;96058.94;5058135;28;20240;-66
2022/04/07 10:16:55;;;;;;;2.47;0.40;;;;;;;13.29;76.35;96044.97;5061287;28;20281;-67
2022/04/07 10:19:28;;;;;;;0.40;0.40;;;;;;;13.50;75.85;96056.66;5073148;28;20618;-67
2022/04/07 10:22:13;;;;;;;0.70;0.60;;;;;;;13.79;75.78;96048.00;5072819;28;20206;-67
2022/04/07 10:24:46;;;;;;;0.30;0.30;;;;;;;13.71;71.83;96037.47;5073080;28;20279;-68
2022/04/07 10:27:16;;;;;;;0.70;0.60;;;;;;;13.65;72.85;96048.78;5073060;28;20242;-68
2022/04/07 10:30:02;;;;;;;1.27;0.50;;;;;;;13.80;73.92;96044.34;5062446;28;20226;-66
2022/04/07 10:32:35;;;;;;;1.50;0.50;;;;;;;13.85;73.78;96026.06;5063656;28;20207;-68
2022/04/07 10:35:01;;;;;;;0.60;0.50;;;;;;;13.78;73.42;96022.47;5072939;28;20215;-67
2022/04/07 10:37:41;;;;;;;0.40;0.40;;;;;;;13.81;74.23;96008.88;5072855;28;20214;-68
2022/04/07 10:40:33;;;;;;;2.47;0.47;;;;;;;13.87;72.68;96018.78;5071162;28;20219;-69
2022/04/07 10:43:13;;;;;;;0.50;0.37;;;;;;;13.84;73.32;96029.72;5066149;28;20235;-68
2022/04/07 10:45:40;;;;;;;0.30;0.30;;;;;;;13.78;74.26;96019.81;5072073;28;20215;-67
2022/04/07 10:48:18;;;;;;;0.77;0.30;;;;;;;13.85;73.49;95999.53;5074846;28;20223;-69
2022/04/07 10:50:48;;;;;;;0.40;0.33;;;;;;;14.07;72.54;96004.00;5070965;28;20214;-68
2022/04/07 10:53:22;;;;;;;2.93;0.70;;;;;;;14.32;73.35;95993.03;5066193;28;20292;-66
2022/04/07 10:56:05;;;;;;;0.30;0.30;;;;;;;14.58;72.51;95976.63;5076720;28;20581;-67
2022/04/07 10:58:45;;;;;;;0.60;0.60;;;;;;;14.73;70.88;95980.94;5071704;28;20219;-67
2022/04/07 11:01:16;;;;;;;0.40;0.30;;;;;;;14.88;70.31;95978.28;5066559;28;20247;-67
2022/04/07 11:04:33;;;;;;;1.87;0.40;;;;;;;14.75;71.14;95963.00;5076320;28;20712;-68
2022/04/07 11:07:16;;;;;;;0.30;0.30;;;;;;;14.92;70.25;95968.94;5028699;28;20216;-67
2022/04/07 11:09:47;;;;;;;0.20;0.20;;;;;;;15.03;69.89;95963.97;5058263;28;20216;-66
2022/04/07 11:12:18;;;;;;;0.80;0.40;;;;;;;15.33;69.84;95962.13;5064456;28;20695;-68
2022/04/07 11:14:47;;;;;;;0.57;0.30;;;;;;;15.80;69.08;95992.53;5062041;28;20697;-67
2022/04/07 11:17:22;;;;;;;0.93;0.23;;;;;;;15.78;68.24;95969.78;5061328;28;20244;-67
2022/04/07 11:20:08;;;;;;;0.97;0.40;;;;;;;15.34;67.65;95963.78;5062699;28;20269;-67
2022/04/07 11:23:05;;;;;;;0.30;0.30;;;;;;;15.25;68.74;95964.84;5061882;28;20204;-66
2022/04/07 11:25:32;;;;;;;0.50;0.33;;;;;;;15.14;69.10;95967.97;5048994;28;20212;-69
2022/04/07 11:28:10;;;;;;;0.53;0.30;;;;;;;15.16;68.84;95955.34;5065234;28;20211;-68
2022/04/07 11:30:40;;;;;;;0.50;0.40;;;;;;;15.20;68.33;95967.25;5065269;28;20233;-66
2022/04/07 11:33:31;;;;;;;0.70;0.30;;;;;;;15.32;68.32;95965.75;5074351;28;20237;-66
2022/04/07 11:36:37;;;;;;;1.53;0.30;;;;;;;15.13;67.51;95963.69;5065495;28;20215;-68
2022/04/07 11:39:04;;;;;;;0.20;0.20;;;;;;;15.05;68.55;95959.31;5069538;28;20679;-68
2022/04/07 11:41:41;;;;;;;1.07;0.50;;;;;;;15.07;67.75;95961.75;5075858;28;20220;-69